Wednesday, November 20, 2019, 5:54 PM EST
Back to Local

KIPT, Williamsport-lycoming County

Location: Montoursville, PA, United States Lat: 41.25
Local Time: 5:54 PM EST (22:54 GMT) Lon: -76.917
Time Zone: US/Eastern Elev: 528 ft

Show me the last for .
Show Decoded

2019-11-20 16:54 METAR KIPT 202154Z 31010KT 10SM OVC055 08/M01 A3010 RMK AO2 SLP196 T00831011 =
2019-11-20 15:54 METAR KIPT 202054Z 31008KT 10SM OVC042 08/M01 A3008 RMK AO2 SLP189 T00831006
                 53016 =
2019-11-20 14:54 METAR KIPT 201954Z 32008KT 10SM OVC048 09/M01 A3006 RMK AO2 SLP182 T00891011 =
2019-11-20 13:54 METAR KIPT 201854Z 33009KT 10SM OVC044 09/M01 A3004 RMK AO2 SLP177 T00891011 =
2019-11-20 12:54 METAR KIPT 201754Z 33007KT 10SM BKN044 OVC055 09/M01 A3003 RMK AO2 SLP172
                 T00941006 10094 20044 56002 =
2019-11-20 11:54 METAR KIPT 201654Z 34008KT 10SM FEW036 OVC075 09/00 A3003 RMK AO2 SLP173
                 T00890000 =
2019-11-20 10:54 METAR KIPT 201554Z 29009KT 10SM BKN034 OVC050 08/00 A3003 RMK AO2 SLP173
                 T00780000 =
2019-11-20 09:54 METAR KIPT 201454Z 25010KT 10SM BKN030 OVC039 07/01 A3004 RMK AO2 SLP174
                 T00670006 51017 =
2019-11-20 09:34 METAR KIPT 201434Z 26007KT 10SM OVC030 06/01 A3003 RMK AO2 T00610006 =
2019-11-20 08:54 METAR KIPT 201354Z 26006KT 10SM OVC029 06/01 A3002 RMK AO2 SLP169 T00610006 =
2019-11-20 07:54 METAR KIPT 201254Z 26006KT 10SM OVC024 05/01 A3001 RMK AO2 SLP166 T00500006 =
2019-11-20 06:54 METAR KIPT 201154Z 24006KT 10SM OVC021 04/01 A2999 RMK AO2 SLP157 T00440006
                 10044 20028 53017 =
2019-11-20 05:54 METAR KIPT 201054Z AUTO 00000KT 10SM OVC018 04/01 A2996 RMK AO2 SLP149 T00390006
                 =
2019-11-20 04:54 METAR KIPT 200954Z AUTO 00000KT 10SM OVC020 04/01 A2995 RMK AO2 SLP144 T00390006
                 =
2019-11-20 03:54 METAR KIPT 200854Z AUTO 00000KT 10SM OVC022 03/01 A2993 RMK AO2 SLP139 T00330006
                 53012 =
2019-11-20 02:54 METAR KIPT 200754Z AUTO 34003KT 10SM OVC024 03/00 A2992 RMK AO2 SLP135 T00330000
                 =
2019-11-20 02:05 METAR KIPT 200705Z AUTO 00000KT 10SM BKN026 OVC050 03/00 A2991 RMK AO2 T00280000
                 =
2019-11-20 01:54 METAR KIPT 200654Z AUTO 00000KT 10SM SCT026 OVC050 03/00 A2990 RMK AO2 SLP128
                 T00330000 =
2019-11-20 00:54 METAR KIPT 200554Z AUTO 26005KT 10SM FEW025 OVC050 04/00 A2990 RMK AO2 SLP127
                 T00390000 10056 20039 53001 =
2019-11-19 23:54 METAR KIPT 200454Z AUTO 27004KT 10SM OVC065 04/00 A2989 RMK AO2 SLP126 T00440000
                 400940033 =
2019-11-19 22:54 METAR KIPT 200354Z AUTO 27005KT 10SM OVC065 04/00 A2989 RMK AO2 SLP124 T00440000
                 =
2019-11-19 21:54 METAR KIPT 200254Z 27003KT 10SM OVC065 05/00 A2989 RMK AO2 SLP127 T00500000
                 51014 =
2019-11-19 20:54 METAR KIPT 200154Z 26005KT 10SM BKN043 BKN050 OVC065 05/01 A2989 RMK AO2 SLP124
                 T00500006 =
2019-11-19 19:54 METAR KIPT 200054Z 00000KT 10SM BKN042 OVC049 05/01 A2987 RMK AO2 SLP118
                 T00500011 =
2019-11-19 18:54 METAR KIPT 192354Z 00000KT 10SM BKN042 OVC050 04/01 A2985 RMK AO2 SLP113
                 T00440011 10094 20039 51017 =

Support USWX by starting your Amazon purchase here.